createdAt,value
2019-03-21T00:02:12.703Z,3.56
2019-03-21T00:05:02.305Z,3.53
2019-03-21T00:07:51.327Z,3.55
2019-03-21T00:11:35.868Z,3.57
2019-03-21T00:15:09.472Z,3.53
2019-03-21T00:18:04.626Z,3.46
2019-03-21T00:20:54.324Z,3.42
2019-03-21T00:23:43.441Z,3.41
2019-03-21T00:26:32.802Z,3.38
2019-03-21T00:29:21.675Z,3.35
2019-03-21T00:32:11.079Z,3.42
2019-03-21T00:35:00.585Z,3.45
2019-03-21T00:37:50.414Z,3.39
2019-03-21T00:40:43.874Z,3.32
2019-03-21T00:43:32.591Z,3.28
2019-03-21T00:46:22.137Z,3.20
2019-03-21T00:49:11.437Z,3.18
2019-03-21T00:52:00.096Z,3.08
2019-03-21T00:54:49.331Z,3.05
2019-03-21T00:57:38.716Z,3.07
2019-03-21T01:00:34.068Z,3.09
2019-03-21T01:03:22.807Z,3.08
2019-03-21T01:06:12.095Z,3.08
2019-03-21T01:09:01.442Z,3.08
2019-03-21T01:11:50.888Z,3.06
2019-03-21T01:14:39.585Z,2.99
2019-03-21T01:17:29.049Z,2.91
2019-03-21T01:20:18.128Z,2.88
2019-03-21T01:23:07.679Z,2.82
2019-03-21T01:25:57.853Z,2.84
2019-03-21T01:28:47.195Z,2.85
2019-03-21T01:31:36.691Z,2.86
2019-03-21T01:34:25.556Z,2.84
2019-03-21T01:37:15.195Z,2.81
2019-03-21T01:40:04.345Z,2.77
2019-03-21T01:42:53.519Z,2.76
2019-03-21T01:45:42.347Z,2.82
2019-03-21T01:48:31.237Z,2.76
2019-03-21T01:51:20.640Z,2.69
2019-03-21T01:54:10.845Z,2.71
2019-03-21T01:57:00.327Z,2.74
2019-03-21T01:59:50.621Z,2.77
2019-03-21T02:02:39.922Z,2.73
2019-03-21T02:05:28.565Z,2.62
2019-03-21T02:08:17.316Z,2.62
2019-03-21T02:11:06.716Z,2.55
2019-03-21T02:13:55.587Z,2.53
2019-03-21T02:16:44.425Z,2.47
2019-03-21T02:19:33.387Z,2.47
2019-03-21T02:22:23.016Z,2.52
2019-03-21T02:25:18.163Z,2.52
2019-03-21T02:28:06.883Z,2.55
2019-03-21T02:30:56.053Z,2.59
2019-03-21T02:33:44.884Z,2.51
2019-03-21T02:36:33.955Z,2.49
2019-03-21T02:39:22.732Z,2.50
2019-03-21T02:42:11.985Z,2.50
2019-03-21T02:45:08.459Z,2.51
2019-03-21T02:47:51.655Z,2.51
2019-03-21T02:50:40.574Z,2.50
2019-03-21T02:53:30.336Z,2.44
2019-03-21T02:56:20.056Z,2.42
2019-03-21T02:59:09.274Z,2.40
2019-03-21T03:01:58.916Z,2.37
2019-03-21T03:04:47.977Z,2.26
2019-03-21T03:07:37.540Z,2.20
2019-03-21T03:10:39.072Z,2.20
2019-03-21T03:13:28.693Z,2.19
2019-03-21T03:16:17.546Z,2.19
2019-03-21T03:19:07.068Z,2.18
2019-03-21T03:21:56.124Z,2.22
2019-03-21T03:24:44.976Z,2.19
2019-03-21T03:27:34.206Z,2.16
2019-03-21T03:30:24.349Z,2.17
2019-03-21T03:33:13.392Z,2.18
2019-03-21T03:36:02.445Z,2.11
2019-03-21T03:38:51.554Z,2.08
2019-03-21T03:41:40.869Z,2.08
2019-03-21T03:44:29.466Z,1.98
2019-03-21T03:47:18.856Z,2.06
2019-03-21T03:50:08.738Z,2.13
2019-03-21T03:52:57.317Z,2.12
2019-03-21T03:55:47.003Z,2.16
2019-03-21T03:58:36.801Z,2.18
2019-03-21T04:01:25.821Z,2.12
2019-03-21T04:04:15.751Z,2.04
2019-03-21T04:07:05.094Z,2.01
2019-03-21T04:09:54.545Z,2.03
2019-03-21T04:12:43.993Z,1.94
2019-03-21T04:15:33.134Z,1.94
2019-03-21T04:18:22.487Z,1.90
2019-03-21T04:21:11.696Z,1.95
2019-03-21T04:24:00.898Z,1.96
2019-03-21T04:26:49.885Z,2.00
2019-03-21T04:29:38.579Z,2.02
2019-03-21T04:32:28.390Z,1.96
2019-03-21T04:35:18.045Z,1.96
2019-03-21T04:38:07.409Z,2.02
2019-03-21T04:40:56.703Z,2.04
2019-03-21T04:43:46.216Z,2.08
2019-03-21T04:46:34.859Z,2.08
2019-03-21T04:49:24.758Z,2.07
2019-03-21T04:52:14.428Z,2.09
2019-03-21T04:55:02.974Z,2.11
2019-03-21T04:57:51.589Z,2.12
2019-03-21T05:00:40.861Z,2.09
2019-03-21T05:03:30.316Z,2.09
2019-03-21T05:06:19.333Z,2.05
2019-03-21T05:09:11.749Z,2.05
2019-03-21T05:12:01.442Z,2.05
2019-03-21T05:14:50.693Z,2.06
2019-03-21T05:17:39.321Z,2.06
2019-03-21T05:20:29.275Z,2.06
2019-03-21T05:23:18.671Z,1.99
2019-03-21T05:26:18.392Z,1.91
2019-03-21T05:29:07.412Z,1.89
2019-03-21T05:31:56.154Z,1.87
2019-03-21T05:34:45.057Z,1.88
2019-03-21T05:37:34.179Z,1.91
2019-03-21T05:40:22.811Z,1.85
2019-03-21T05:43:18.212Z,1.82
2019-03-21T05:46:07.561Z,1.79
2019-03-21T05:48:57.131Z,1.73
2019-03-21T05:51:46.560Z,1.74
2019-03-21T05:54:35.227Z,1.76
2019-03-21T05:57:23.873Z,1.86
2019-03-21T06:00:19.377Z,1.96
2019-03-21T06:03:16.106Z,2.01
2019-03-21T06:06:12.572Z,2.06
2019-03-21T06:09:02.346Z,2.03
2019-03-21T06:11:55.577Z,2.02
2019-03-21T06:14:49.118Z,2.07
2019-03-21T06:17:37.908Z,2.13
2019-03-21T06:20:41.593Z,2.17
2019-03-21T06:24:15.094Z,2.23
2019-03-21T06:27:14.881Z,2.30
2019-03-21T06:30:04.611Z,2.40
2019-03-21T06:32:53.880Z,2.43
2019-03-21T06:35:43.018Z,2.55
2019-03-21T06:38:32.318Z,2.63
2019-03-21T06:41:21.492Z,2.65
2019-03-21T06:44:10.579Z,2.75
2019-03-21T06:46:59.645Z,2.78
2019-03-21T06:49:48.528Z,2.94
2019-03-21T06:52:37.313Z,3.05
2019-03-21T06:55:26.732Z,3.13
2019-03-21T06:58:16.291Z,3.13
2019-03-21T07:01:05.267Z,3.35
2019-03-21T07:03:54.590Z,3.35
2019-03-21T07:06:43.355Z,3.53
2019-03-21T07:09:32.649Z,3.63
2019-03-21T07:12:21.834Z,3.64
2019-03-21T07:15:11.977Z,3.75
2019-03-21T07:18:00.805Z,3.80
2019-03-21T07:20:49.889Z,3.93
2019-03-21T07:23:39.096Z,4.01
2019-03-21T07:26:28.448Z,4.09
2019-03-21T07:29:18.191Z,4.15
2019-03-21T07:32:07.108Z,4.24
2019-03-21T07:34:56.296Z,4.37
2019-03-21T07:37:45.885Z,4.48
2019-03-21T07:40:34.852Z,4.64
2019-03-21T07:43:23.809Z,4.73
2019-03-21T07:46:13.256Z,4.83
2019-03-21T07:49:02.639Z,4.90
2019-03-21T07:51:51.334Z,5.03
2019-03-21T07:54:40.281Z,5.14
2019-03-21T07:57:29.681Z,5.25
2019-03-21T08:00:19.892Z,5.33
2019-03-21T08:03:08.987Z,5.42
2019-03-21T08:05:58.211Z,5.53
2019-03-21T08:08:47.817Z,5.62
2019-03-21T08:11:37.501Z,5.70
2019-03-21T08:14:26.622Z,5.87
2019-03-21T08:17:16.730Z,5.91
2019-03-21T08:20:07.976Z,6.05
2019-03-21T08:22:56.824Z,6.15
2019-03-21T08:25:45.774Z,6.27
2019-03-21T08:28:34.781Z,6.42
2019-03-21T08:31:24.279Z,6.54
2019-03-21T08:34:13.553Z,6.66
2019-03-21T08:37:02.122Z,6.78
2019-03-21T08:39:51.176Z,6.85
2019-03-21T08:42:40.412Z,6.93
2019-03-21T08:45:31.000Z,6.98
2019-03-21T08:48:20.231Z,7.17
2019-03-21T08:51:09.591Z,7.26
2019-03-21T08:53:58.353Z,7.36
2019-03-21T08:56:48.034Z,7.47
2019-03-21T08:59:37.222Z,7.61
2019-03-21T09:02:25.814Z,7.73
2019-03-21T09:05:15.277Z,7.78
2019-03-21T09:08:04.329Z,7.81
2019-03-21T09:10:53.808Z,7.95
2019-03-21T09:13:43.029Z,8.03
2019-03-21T09:16:32.099Z,8.14
2019-03-21T09:19:20.756Z,8.21
2019-03-21T09:22:10.114Z,8.30
2019-03-21T09:24:59.691Z,8.36
2019-03-21T09:27:48.616Z,8.54
2019-03-21T09:30:37.845Z,8.70
2019-03-21T09:33:27.143Z,8.91
2019-03-21T09:36:16.470Z,9.08
2019-03-21T09:39:07.469Z,9.21
2019-03-21T09:41:56.585Z,9.32
2019-03-21T09:44:45.468Z,9.44
2019-03-21T09:47:34.381Z,9.53
2019-03-21T09:50:28.435Z,9.64
2019-03-21T09:53:17.298Z,9.72
2019-03-21T09:56:06.322Z,9.86
2019-03-21T09:58:55.872Z,9.97
2019-03-21T10:01:45.484Z,10.07
2019-03-21T10:04:34.508Z,10.21
2019-03-21T10:07:24.074Z,10.27
2019-03-21T10:10:16.248Z,10.21
2019-03-21T10:13:06.096Z,10.34
2019-03-21T10:15:55.643Z,10.44
2019-03-21T10:18:45.187Z,10.57
2019-03-21T10:21:42.759Z,10.63
2019-03-21T10:24:24.650Z,10.74
2019-03-21T10:27:14.193Z,10.84
2019-03-21T10:30:03.451Z,10.92
2019-03-21T10:32:53.899Z,11.05
2019-03-21T10:35:43.719Z,11.16
2019-03-21T10:38:32.825Z,11.19
2019-03-21T10:41:22.076Z,11.28
2019-03-21T10:44:11.288Z,11.40
2019-03-21T10:47:00.669Z,11.40
2019-03-21T10:49:50.185Z,11.56
2019-03-21T10:52:40.000Z,11.72
2019-03-21T10:55:29.153Z,11.77
2019-03-21T10:58:18.334Z,11.83
2019-03-21T11:01:07.153Z,11.98
2019-03-21T11:03:55.992Z,12.11
2019-03-21T11:06:45.450Z,12.11
2019-03-21T11:09:34.695Z,12.13
2019-03-21T11:12:23.945Z,12.23
2019-03-21T11:15:13.182Z,12.42
2019-03-21T11:18:02.761Z,12.30
2019-03-21T11:20:53.223Z,12.39
2019-03-21T11:23:42.073Z,12.52
2019-03-21T11:26:31.447Z,12.59
2019-03-21T11:29:21.072Z,12.80
2019-03-21T11:32:10.816Z,12.90
2019-03-21T11:35:00.478Z,12.93
2019-03-21T11:37:49.287Z,13.10
2019-03-21T11:40:38.655Z,13.18
2019-03-21T11:43:27.537Z,13.11
2019-03-21T11:46:17.168Z,13.19
2019-03-21T11:49:06.598Z,13.20
2019-03-21T11:51:55.474Z,13.06
2019-03-21T11:54:44.161Z,13.18
2019-03-21T11:57:33.015Z,13.27
2019-03-21T12:00:21.740Z,13.34
2019-03-21T12:03:10.881Z,13.43
2019-03-21T12:06:00.096Z,13.35
2019-03-21T12:08:49.474Z,13.42
2019-03-21T12:11:39.004Z,13.52
2019-03-21T12:14:27.988Z,13.75
2019-03-21T12:17:17.038Z,13.89
2019-03-21T12:20:07.109Z,14.00
2019-03-21T12:22:56.186Z,14.08
2019-03-21T12:25:45.482Z,14.09
2019-03-21T12:28:34.408Z,14.24
2019-03-21T12:31:23.413Z,14.46
2019-03-21T12:34:13.236Z,14.59
2019-03-21T12:37:02.171Z,14.54
2019-03-21T12:39:51.496Z,14.65
2019-03-21T12:42:40.895Z,14.88
2019-03-21T12:45:29.955Z,14.99
2019-03-21T12:48:19.300Z,15.10
2019-03-21T12:51:08.814Z,15.30
2019-03-21T12:53:58.331Z,15.24
2019-03-21T12:56:47.068Z,15.40
2019-03-21T12:59:35.851Z,15.50
2019-03-21T13:02:32.241Z,15.62
2019-03-21T13:05:19.052Z,15.66
2019-03-21T13:08:08.333Z,15.86
2019-03-21T13:10:57.520Z,15.83
2019-03-21T13:13:46.885Z,15.55
2019-03-21T13:16:36.275Z,15.79
2019-03-21T13:19:25.742Z,16.08
2019-03-21T13:22:15.651Z,16.54
2019-03-21T13:25:05.800Z,16.54
2019-03-21T13:27:55.132Z,16.29
2019-03-21T13:30:44.674Z,16.49
2019-03-21T13:33:33.990Z,16.28
2019-03-21T13:36:23.198Z,16.40
2019-03-21T13:39:12.473Z,16.50
2019-03-21T13:42:01.837Z,16.52
2019-03-21T13:44:50.956Z,17.03
2019-03-21T13:47:40.409Z,17.03
2019-03-21T13:50:30.326Z,17.82
2019-03-21T13:53:19.378Z,17.82
2019-03-21T13:56:08.617Z,18.69
2019-03-21T13:58:57.907Z,18.69
2019-03-21T14:01:47.515Z,18.91
2019-03-21T14:04:36.927Z,19.30
2019-03-21T14:07:26.524Z,19.86
2019-03-21T14:10:15.456Z,19.86
2019-03-21T14:13:05.011Z,20.49
2019-03-21T14:15:54.392Z,21.28
2019-03-21T14:18:43.308Z,21.14
2019-03-21T14:21:32.041Z,21.84
2019-03-21T14:24:21.400Z,22.57
2019-03-21T14:27:10.387Z,23.12
2019-03-21T14:30:01.834Z,23.30
2019-03-21T14:32:49.477Z,23.91
2019-03-21T14:35:38.755Z,24.21
2019-03-21T14:38:27.492Z,23.61
2019-03-21T14:41:17.048Z,23.32
2019-03-21T14:44:07.206Z,23.88
2019-03-21T14:46:56.375Z,23.29
2019-03-21T14:49:45.915Z,23.53
2019-03-21T14:52:36.484Z,23.81
2019-03-21T14:55:25.949Z,24.19
2019-03-21T14:58:15.669Z,24.20
2019-03-21T15:01:05.058Z,24.21
2019-03-21T15:03:54.618Z,24.14
2019-03-21T15:06:43.552Z,24.06
2019-03-21T15:09:32.801Z,24.06
2019-03-21T15:12:22.204Z,24.44
2019-03-21T15:15:12.433Z,24.31
2019-03-21T15:18:01.406Z,24.31
2019-03-21T15:20:50.815Z,24.11
2019-03-21T15:23:41.161Z,23.97
2019-03-21T15:26:30.347Z,23.62
2019-03-21T15:29:19.067Z,23.94
2019-03-21T15:32:08.018Z,23.36
2019-03-21T15:34:57.383Z,23.49
2019-03-21T15:37:46.347Z,23.80
2019-03-21T15:40:35.313Z,23.83
2019-03-21T15:43:24.454Z,23.74
2019-03-21T15:46:13.698Z,23.36
2019-03-21T15:49:03.157Z,22.50
2019-03-21T15:51:52.286Z,22.10
2019-03-21T15:54:41.759Z,21.62
2019-03-21T15:57:31.974Z,21.15
2019-03-21T16:00:29.688Z,20.93
2019-03-21T16:03:18.578Z,20.95
2019-03-21T16:06:08.065Z,21.07
2019-03-21T16:08:57.489Z,21.28
2019-03-21T16:11:46.893Z,21.11
2019-03-21T16:14:35.916Z,21.17
2019-03-21T16:17:25.671Z,21.27
2019-03-21T16:20:14.587Z,21.08
2019-03-21T16:23:03.228Z,20.67
2019-03-21T16:25:53.045Z,19.79
2019-03-21T16:28:41.604Z,19.25
2019-03-21T16:31:30.684Z,18.63
2019-03-21T16:34:20.453Z,17.55
2019-03-21T16:37:12.034Z,17.42
2019-03-21T16:40:00.645Z,17.09
2019-03-21T16:42:50.263Z,16.58
2019-03-21T16:45:39.759Z,16.25
2019-03-21T16:48:28.895Z,15.78
2019-03-21T16:51:18.316Z,15.78
2019-03-21T16:54:16.497Z,15.54
2019-03-21T16:56:58.006Z,15.35
2019-03-21T16:59:47.360Z,15.14
2019-03-21T17:02:39.420Z,14.95
2019-03-21T17:05:29.112Z,14.75
2019-03-21T17:08:18.137Z,14.51
2019-03-21T17:11:07.445Z,14.35
2019-03-21T17:13:56.256Z,14.19
2019-03-21T17:16:45.697Z,14.08
2019-03-21T17:19:35.376Z,13.97
2019-03-21T17:22:24.523Z,13.82
2019-03-21T17:25:14.389Z,13.68
2019-03-21T17:28:03.598Z,13.60
2019-03-21T17:30:53.157Z,13.44
2019-03-21T17:33:42.525Z,13.36
2019-03-21T17:36:32.408Z,13.23
2019-03-21T17:39:20.938Z,13.16
2019-03-21T17:42:09.724Z,13.01
2019-03-21T17:44:58.937Z,12.92
2019-03-21T17:47:48.603Z,12.83
2019-03-21T17:50:38.762Z,12.64
2019-03-21T17:53:27.702Z,12.54
2019-03-21T17:56:16.891Z,12.43
2019-03-21T17:59:06.156Z,12.35
2019-03-21T18:01:55.269Z,12.22
2019-03-21T18:04:44.965Z,12.18
2019-03-21T18:07:34.220Z,12.08
2019-03-21T18:10:33.884Z,11.96
2019-03-21T18:13:23.139Z,11.86
2019-03-21T18:16:12.394Z,11.74
2019-03-21T18:19:02.170Z,11.64
2019-03-21T18:21:51.894Z,11.55
2019-03-21T18:24:52.991Z,11.44
2019-03-21T18:27:32.806Z,11.34
2019-03-21T18:30:21.561Z,11.23
2019-03-21T18:33:11.050Z,11.15
2019-03-21T18:36:00.714Z,11.12
2019-03-21T18:38:58.809Z,11.00
2019-03-21T18:41:40.952Z,10.92
2019-03-21T18:44:30.867Z,10.82
2019-03-21T18:47:20.944Z,10.76
2019-03-21T18:50:10.878Z,10.71
2019-03-21T18:52:59.836Z,10.56
2019-03-21T18:55:49.325Z,10.49
2019-03-21T18:58:38.340Z,10.42
2019-03-21T19:01:27.836Z,10.33
2019-03-21T19:04:18.190Z,10.27
2019-03-21T19:07:07.543Z,10.13
2019-03-21T19:09:57.478Z,10.07
2019-03-21T19:12:47.141Z,10.05
2019-03-21T19:15:37.027Z,10.05
2019-03-21T19:18:26.053Z,9.96
2019-03-21T19:21:17.989Z,9.97
2019-03-21T19:24:11.516Z,9.93
2019-03-21T19:27:00.480Z,9.89
2019-03-21T19:29:50.415Z,9.80
2019-03-21T19:32:40.511Z,9.69
2019-03-21T19:35:29.663Z,9.55
2019-03-21T19:38:19.667Z,9.42
2019-03-21T19:41:09.013Z,9.33
2019-03-21T19:43:58.516Z,9.27
2019-03-21T19:46:48.143Z,9.20
2019-03-21T19:49:37.610Z,9.13
2019-03-21T19:52:27.387Z,9.09
2019-03-21T19:55:25.879Z,8.96
2019-03-21T19:58:08.879Z,8.61
2019-03-21T20:00:58.148Z,8.49
2019-03-21T20:03:47.944Z,8.51
2019-03-21T20:06:36.844Z,8.59
2019-03-21T20:09:25.699Z,8.65
2019-03-21T20:12:15.330Z,8.67
2019-03-21T20:15:05.927Z,8.57
2019-03-21T20:17:54.897Z,8.40
2019-03-21T20:20:43.991Z,8.12
2019-03-21T20:23:33.449Z,7.96
2019-03-21T20:26:22.947Z,7.94
2019-03-21T20:29:12.468Z,7.93
2019-03-21T20:32:02.658Z,7.92
2019-03-21T20:34:52.181Z,7.89
2019-03-21T20:37:41.596Z,7.84
2019-03-21T20:40:31.075Z,7.80
2019-03-21T20:43:20.953Z,7.71
2019-03-21T20:46:10.497Z,7.66
2019-03-21T20:48:57.833Z,7.64
2019-03-21T20:51:47.206Z,7.59
2019-03-21T20:54:36.704Z,7.56
2019-03-21T20:57:25.914Z,7.50
2019-03-21T21:00:17.882Z,7.41
2019-03-21T21:03:06.839Z,7.31
2019-03-21T21:05:55.989Z,7.23
2019-03-21T21:08:45.557Z,7.09
2019-03-21T21:11:35.212Z,7.09
2019-03-21T21:14:24.232Z,7.00
2019-03-21T21:17:13.280Z,7.00
2019-03-21T21:20:02.408Z,7.02
2019-03-21T21:22:51.899Z,7.05
2019-03-21T21:25:41.548Z,7.10
2019-03-21T21:28:31.066Z,7.11
2019-03-21T21:31:20.339Z,7.09
2019-03-21T21:34:09.841Z,6.99
2019-03-21T21:36:59.314Z,6.86
2019-03-21T21:39:48.260Z,6.79
2019-03-21T21:42:37.809Z,6.79
2019-03-21T21:45:26.849Z,6.72
2019-03-21T21:48:16.239Z,6.59
2019-03-21T21:51:05.671Z,6.62
2019-03-21T21:53:54.904Z,6.65
2019-03-21T21:56:44.427Z,6.69
2019-03-21T21:59:33.446Z,6.62
2019-03-21T22:02:22.586Z,6.42
2019-03-21T22:05:11.334Z,6.28
2019-03-21T22:08:02.014Z,6.25
2019-03-21T22:10:51.075Z,6.19
2019-03-21T22:13:40.017Z,6.15
2019-03-21T22:16:29.247Z,6.05
2019-03-21T22:19:18.619Z,6.02
2019-03-21T22:22:08.155Z,6.03
2019-03-21T22:24:57.840Z,6.04
2019-03-21T22:27:47.354Z,6.14
2019-03-21T22:30:37.073Z,6.19
2019-03-21T22:33:26.744Z,6.26
2019-03-21T22:36:16.597Z,6.16
2019-03-21T22:39:07.959Z,5.95
2019-03-21T22:41:57.409Z,5.95
2019-03-21T22:44:46.540Z,5.89
2019-03-21T22:47:35.938Z,5.81
2019-03-21T22:50:25.373Z,5.66
2019-03-21T22:53:14.840Z,5.59
2019-03-21T22:56:03.958Z,5.57
2019-03-21T22:58:53.728Z,5.56
2019-03-21T23:01:42.566Z,5.51
2019-03-21T23:04:31.972Z,5.46
2019-03-21T23:07:22.112Z,5.42
2019-03-21T23:10:12.417Z,5.36
2019-03-21T23:13:01.528Z,5.28
2019-03-21T23:15:51.118Z,5.30
2019-03-21T23:18:40.750Z,5.34
2019-03-21T23:21:29.754Z,5.28
2019-03-21T23:24:18.911Z,5.19
2019-03-21T23:27:07.983Z,5.17
2019-03-21T23:29:57.052Z,5.13
2019-03-21T23:32:46.700Z,5.12
2019-03-21T23:35:35.798Z,5.20
2019-03-21T23:38:24.542Z,5.20
2019-03-21T23:41:14.052Z,5.14
2019-03-21T23:44:03.667Z,5.06
2019-03-21T23:46:54.389Z,5.01
2019-03-21T23:49:44.125Z,4.99
2019-03-21T23:52:33.819Z,4.94
2019-03-21T23:55:23.518Z,4.94
2019-03-21T23:58:12.651Z,4.96
